Cliffdell, Washington
Current Conditions -  °F | °C
As of 12:53 AM on Sunday 23 Nov 2014 (Local Time) from KYKM Reporting Station
Clear Clear  
Wind Chill: 30°   Ceiling: Unl
Heat Index: 34°   Visibility: 10mi
Dew Point: 27°   Wind: 5mph
Humidity: 75%   Direction: 120°ESE
Pressure: 30.1"   Gusts: NA
Location:  46.6628°N, 121.193°W
Report Text: KYKM 230853Z AUTO 12004KT 10SM CLR 01/M03 A3010 RMK AO2 SLP200 T00111028 51021
Loading
Personal Weather Stations






























Interactive Weather Map New forecast layout! Learn more

10-Day Weather Forecast

Advertisements
Track Severe Weather on mobile